Osceola, Indiana
Current Conditions -  °F | °C
As of 1:50 PM on Saturday 25 Oct 2014 (Local Time) from KEKM Reporting Station
Clear Clear  
Wind Chill: 66°   Ceiling: Unl
Heat Index: 66°   Visibility: 10mi
Dew Point: 48°   Wind: 12mph
Humidity: 52%   Direction: 300°WNW
Pressure: 29.91"   Gusts: 21mph
Location:  41.67°N, 86.08°W
Report Text: KEKM 251750Z 30010G18KT 10SM CLR 19/09 A2991 RMK AO2
Loading
Personal Weather Stations






























Interactive Weather Map New forecast layout! Learn more

10-Day Weather Forecast

Advertisements
Track Severe Weather on mobile